This is the latest recevied weather packets stored in our database for station/object GW1572. If no packets are shown the sender has not sent any weather packets the latest 10 day(s).
| Time | Temp. | Humidity | Pressure | Rain* | Wind** | Luminosity | Snow |
|---|---|---|---|---|---|---|---|
| 1777898905 | 12.78° C | 75% | 1005 hPa | 0 mm | - | - | - |
| 1777896405 | 10.56° C | 83% | 1005.4 hPa | 0 mm | - | - | - |
| 1777895324 | 9.44° C | 85% | 1005 hPa | 0 mm | - | - | - |
| 1777892430 | 7.78° C | 91% | 1004.7 hPa | 0 mm | - | - | - |
| 1777888488 | 7.22° C | 95% | 1005 hPa | 0 mm | - | - | - |
| 1777888097 | 7.22° C | 95% | 1004.7 hPa | 0 mm | - | - | - |
| 1777885574 | 7.22° C | 97% | 1005.4 hPa | 0 mm | - | - | - |
| 1777884142 | 7.78° C | 97% | 1005.7 hPa | 0 mm | - | - | - |
| 1777882695 | 7.78° C | 97% | 1005.4 hPa | 0 mm | - | - | - |
| 1777882336 | 7.78° C | 96% | 1005.7 hPa | 0 mm | - | - | - |
| 1777880176 | 7.78° C | 96% | 1005.7 hPa | 0 mm | - | - | - |
| 1777873000 | 9.44° C | 93% | 1006.7 hPa | 0 mm | - | - | - |
| 1777868671 | 11.11° C | 76% | 1007.4 hPa | 0 mm | - | - | - |
| 1777867605 | 12.22° C | 68% | 1007.4 hPa | 0 mm | - | - | - |
| 1777865773 | 11.67° C | 72% | 1007.1 hPa | 0 mm | - | - | - |
| 1777865436 | 11.67° C | 71% | 1007.1 hPa | 0 mm | - | - | - |
| 1777863254 | 11.67° C | 71% | 1007.1 hPa | 0 mm | - | - | - |
| 1777862540 | 11.11° C | 69% | 1007.1 hPa | 0 mm | - | - | - |
| 1777861827 | 11.11° C | 71% | 1007.1 hPa | 0 mm | - | - | - |
| 1777861114 | 11.11° C | 71% | 1007.1 hPa | 0 mm | - | - | - |
| 1777860380 | 11.11° C | 72% | 1007.1 hPa | 0 mm | - | - | - |
| 1777857134 | 12.22° C | 66% | 1006.7 hPa | 0 mm | - | - | - |
| 1777856079 | 12.22° C | 62% | 1007.1 hPa | 0 mm | - | - | - |
| 1777849972 | 16.67° C | 39% | 1007.1 hPa | 0 mm | - | - | - |
| 1777848143 | 17.22° C | 38% | 1007.4 hPa | 0 mm | - | - | - |
* Rain since midnight (hover to see other rain measurements)
** Current wind speed in m/s (hover to see current wind gust speed)